Time;durP1;ratioP1;P1;durP2;ratioP2;P2;SDS_P1;SDS_P2;PMS_P1;PMS_P2;Temp;Humidity;BMP_temperature;BMP_pressure;BME280_temperature;BME280_humidity;BME280_pressure;Samples;Min_cycle;Max_cycle;Signal;HPM_P1;HPM_P2
2022/09/18 00:01:41;;;;;;;;;;;11.10;98.80;;;;;;4975383;28;20374;-86
2022/09/18 00:04:07;;;;;;;;;;;11.20;98.90;;;;;;4981249;28;19936;-86
2022/09/18 00:06:34;;;;;;;;;;;11.20;99.00;;;;;;4981125;28;20390;-86
2022/09/18 00:09:00;;;;;;;;;;;11.20;99.00;;;;;;4982947;28;19938;-86
2022/09/18 00:11:27;;;;;;;;;;;11.20;99.10;;;;;;4981973;28;19913;-86
2022/09/18 00:13:53;;;;;;;;;;;11.20;99.20;;;;;;4980116;28;19905;-85
2022/09/18 00:16:20;;;;;;;;;;;11.20;99.20;;;;;;4979630;28;19913;-87
2022/09/18 00:18:46;;;;;;;;;;;11.20;99.20;;;;;;4979715;28;19909;-87
2022/09/18 00:21:13;;;;;;;;;;;11.20;99.30;;;;;;4979640;28;19964;-86
2022/09/18 00:23:39;;;;;;;;;;;11.20;99.30;;;;;;4979551;28;20001;-86
2022/09/18 00:26:05;;;;;;;;;;;11.20;99.40;;;;;;4979490;28;19957;-87
2022/09/18 00:28:31;;;;;;;;;;;11.10;99.40;;;;;;4979547;28;20021;-87
2022/09/18 00:31:04;;;;;;;;;;;11.10;99.50;;;;;;4976615;28;20295;-86
2022/09/18 00:33:30;;;;;;;;;;;11.10;99.60;;;;;;4978969;28;19906;-86
2022/09/18 00:35:58;;;;;;;;;;;11.10;99.60;;;;;;4978686;28;19906;-86
2022/09/18 00:38:24;;;;;;;;;;;11.10;99.70;;;;;;4978257;28;20005;-86
2022/09/18 00:40:49;;;;;;;;;;;11.00;99.70;;;;;;4978847;28;19937;-86
2022/09/18 00:43:22;;;;;;;;;;;11.00;99.80;;;;;;4996055;28;19906;-85
2022/09/18 00:45:59;;;;;;;;;;;11.00;99.90;;;;;;4978349;28;20322;-86
2022/09/18 00:48:27;;;;;;;;;;;10.90;99.90;;;;;;4977270;28;20382;-85
2022/09/18 00:50:53;;;;;;;;;;;10.90;99.90;;;;;;4995391;28;19909;-86
2022/09/18 00:53:19;;;;;;;;;;;10.80;99.90;;;;;;4995460;28;19913;-85
2022/09/18 00:55:45;;;;;;;;;;;10.80;99.90;;;;;;4977983;28;19914;-87
2022/09/18 00:58:11;;;;;;;;;;;10.80;99.90;;;;;;4978455;28;19910;-86
2022/09/18 01:00:37;;;;;;;;;;;10.70;99.90;;;;;;4985934;28;19948;-87
2022/09/18 01:03:03;;;;;;;;;;;10.70;99.90;;;;;;4978211;28;19910;-86
2022/09/18 01:05:47;;;;;;;;;;;10.70;99.90;;;;;;4977691;28;19905;-86
2022/09/18 01:08:31;;;;;;;;;;;10.60;99.90;;;;;;4993584;28;19906;-85
2022/09/18 01:11:10;;;;;;;;;;;10.60;99.90;;;;;;4991295;28;19914;-87
2022/09/18 01:13:43;;;;;;;;;;;10.60;99.90;;;;;;4969610;28;19909;-86
2022/09/18 01:16:08;;;;;;;;;;;10.50;99.90;;;;;;4977683;28;19910;-86
2022/09/18 01:18:34;;;;;;;;;;;10.40;99.90;;;;;;4977404;28;19973;-86
2022/09/18 01:20:59;;;;;;;;;;;10.40;99.90;;;;;;4994720;28;20353;-85
2022/09/18 01:23:44;;;;;;;;;;;10.40;99.90;;;;;;4994685;28;19944;-85
2022/09/18 01:26:13;;;;;;;;;;;10.40;99.90;;;;;;4989359;28;19917;-87
2022/09/18 01:28:42;;;;;;;;;;;10.40;99.90;;;;;;4975351;28;19910;-87
2022/09/18 01:31:12;;;;;;;;;;;10.40;99.90;;;;;;4974323;28;19953;-85
2022/09/18 01:33:47;;;;;;;;;;;10.40;99.90;;;;;;4971582;28;19956;-88
2022/09/18 01:36:14;;;;;;;;;;;10.30;99.90;;;;;;4975240;28;19914;-86
2022/09/18 01:38:58;;;;;;;;;;;10.30;99.90;;;;;;4973661;28;19905;-86
2022/09/18 01:41:26;;;;;;;;;;;10.30;99.90;;;;;;4963660;28;19918;-87
2022/09/18 01:44:11;;;;;;;;;;;10.30;99.90;;;;;;4974951;28;20364;-86
2022/09/18 01:46:38;;;;;;;;;;;10.30;99.90;;;;;;4981033;28;19918;-86
2022/09/18 01:49:09;;;;;;;;;;;10.20;99.90;;;;;;4973908;28;19910;-86
2022/09/18 01:51:38;;;;;;;;;;;10.20;99.90;;;;;;4975252;28;20069;-87
2022/09/18 01:54:07;;;;;;;;;;;10.20;99.90;;;;;;4973917;28;19948;-87
2022/09/18 01:56:34;;;;;;;;;;;10.20;99.90;;;;;;4974040;28;19911;-87
2022/09/18 01:59:02;;;;;;;;;;;10.20;99.90;;;;;;4987517;28;20339;-86
2022/09/18 02:01:29;;;;;;;;;;;10.10;99.90;;;;;;4973639;28;20363;-85
2022/09/18 02:04:01;;;;;;;;;;;10.10;99.90;;;;;;4973090;28;20268;-85
2022/09/18 02:06:53;;;;;;;;;;;10.00;99.90;;;;;;4974760;28;19905;-86
2022/09/18 02:09:18;;;;;;;;;;;9.90;99.90;;;;;;4977275;28;19906;-86
2022/09/18 02:11:46;;;;;;;;;;;9.90;99.90;;;;;;4974569;28;20283;-84
2022/09/18 02:14:12;;;;;;;;;;;9.90;99.90;;;;;;4973136;28;20035;-86
2022/09/18 02:16:45;;;;;;;;;;;9.90;99.90;;;;;;4972822;28;19914;-85
2022/09/18 02:19:17;;;;;;;;;;;9.90;99.90;;;;;;4972920;28;19910;-85
2022/09/18 02:21:44;;;;;;;;;;;9.80;99.90;;;;;;4986690;28;20299;-85
2022/09/18 02:24:11;;;;;;;;;;;9.80;99.90;;;;;;4975833;28;19997;-86
2022/09/18 02:26:41;;;;;;;;;;;9.80;99.90;;;;;;4993496;28;20399;-86
2022/09/18 02:29:08;;;;;;;;;;;9.70;99.90;;;;;;4975852;28;19905;-86
2022/09/18 02:31:35;;;;;;;;;;;9.70;99.90;;;;;;4975415;28;19922;-85
2022/09/18 02:34:01;;;;;;;;;;;9.70;99.90;;;;;;4973067;28;20256;-86
2022/09/18 02:36:30;;;;;;;;;;;9.70;99.90;;;;;;4992146;28;19949;-85
2022/09/18 02:39:15;;;;;;;;;;;9.60;99.90;;;;;;4975890;28;20351;-85
2022/09/18 02:41:59;;;;;;;;;;;9.60;99.90;;;;;;4989320;28;20016;-86
2022/09/18 02:44:40;;;;;;;;;;;9.60;99.90;;;;;;4989863;28;19910;-86
2022/09/18 02:47:05;;;;;;;;;;;9.60;99.90;;;;;;4987047;28;19907;-85
2022/09/18 02:49:48;;;;;;;;;;;9.60;99.90;;;;;;4975810;28;19912;-85
2022/09/18 02:52:24;;;;;;;;;;;9.60;99.90;;;;;;4991315;28;20580;-85
2022/09/18 02:55:10;;;;;;;;;;;9.50;99.90;;;;;;4976364;28;19921;-85
2022/09/18 02:57:38;;;;;;;;;;;9.50;99.90;;;;;;4993520;28;19989;-85
2022/09/18 03:00:05;;;;;;;;;;;9.50;99.90;;;;;;4993394;28;19945;-84
2022/09/18 03:02:31;;;;;;;;;;;9.50;99.90;;;;;;4993156;28;19905;-85
2022/09/18 03:04:57;;;;;;;;;;;9.50;99.90;;;;;;4976018;28;20282;-85
2022/09/18 03:07:23;;;;;;;;;;;9.50;99.90;;;;;;4975971;28;19914;-85
2022/09/18 03:09:49;;;;;;;;;;;9.60;99.90;;;;;;4979444;28;19916;-85
2022/09/18 03:12:14;;;;;;;;;;;9.60;99.90;;;;;;4980918;28;20574;-85
2022/09/18 03:14:40;;;;;;;;;;;9.60;99.90;;;;;;4980444;28;20268;-85
2022/09/18 03:17:06;;;;;;;;;;;9.60;99.90;;;;;;4995593;28;20363;-86
2022/09/18 03:19:31;;;;;;;;;;;9.60;99.90;;;;;;4977108;28;20426;-85
2022/09/18 03:21:57;;;;;;;;;;;9.60;99.90;;;;;;4993415;28;19952;-85
2022/09/18 03:24:24;;;;;;;;;;;9.60;99.90;;;;;;4976119;28;20363;-86
2022/09/18 03:26:50;;;;;;;;;;;9.60;99.90;;;;;;4975950;28;19937;-86
2022/09/18 03:29:16;;;;;;;;;;;9.70;99.90;;;;;;4975707;28;20004;-89
2022/09/18 03:31:41;;;;;;;;;;;9.70;99.90;;;;;;4975446;28;20000;-84
2022/09/18 03:34:07;;;;;;;;;;;9.70;99.90;;;;;;4975975;28;20143;-86
2022/09/18 03:36:32;;;;;;;;;;;9.70;99.90;;;;;;4975683;28;19910;-86
2022/09/18 03:38:58;;;;;;;;;;;9.70;99.90;;;;;;4993180;28;19996;-84
2022/09/18 03:41:24;;;;;;;;;;;9.70;99.90;;;;;;4976176;28;20417;-85
2022/09/18 03:43:50;;;;;;;;;;;9.70;99.90;;;;;;4997375;28;19910;-84
2022/09/18 03:46:21;;;;;;;;;;;9.70;99.90;;;;;;4979900;28;19961;-85
2022/09/18 03:48:47;;;;;;;;;;;9.70;99.90;;;;;;4997481;28;19930;-84
2022/09/18 03:51:12;;;;;;;;;;;9.80;99.90;;;;;;4979689;28;19909;-85
2022/09/18 03:53:38;;;;;;;;;;;9.80;99.90;;;;;;4980430;28;19964;-83
2022/09/18 03:56:04;;;;;;;;;;;9.80;99.90;;;;;;4997456;28;20259;-88
2022/09/18 03:58:30;;;;;;;;;;;9.80;99.90;;;;;;4997085;28;19997;-85
2022/09/18 04:00:55;;;;;;;;;;;9.80;99.90;;;;;;4996932;28;19917;-86
2022/09/18 04:03:21;;;;;;;;;;;9.80;99.90;;;;;;4979606;28;20414;-87
2022/09/18 04:05:48;;;;;;;;;;;9.80;99.90;;;;;;4979071;28;19957;-85
2022/09/18 04:08:13;;;;;;;;;;;9.80;99.90;;;;;;4979469;28;19909;-85
2022/09/18 04:10:39;;;;;;;;;;;9.80;99.90;;;;;;4979074;28;20333;-85
2022/09/18 04:13:04;;;;;;;;;;;9.80;99.90;;;;;;4996452;28;20426;-85
2022/09/18 04:15:30;;;;;;;;;;;9.80;99.90;;;;;;4995020;28;20046;-87
2022/09/18 04:17:55;;;;;;;;;;;9.80;99.90;;;;;;4978878;28;20009;-85
2022/09/18 04:20:21;;;;;;;;;;;9.80;99.90;;;;;;4996245;28;19960;-85
2022/09/18 04:22:46;;;;;;;;;;;9.80;99.90;;;;;;4996437;28;20263;-85
2022/09/18 04:25:12;;;;;;;;;;;9.80;99.90;;;;;;4994704;28;20434;-85
2022/09/18 04:27:37;;;;;;;;;;;9.90;99.90;;;;;;4995933;28;20000;-85
2022/09/18 04:30:03;;;;;;;;;;;9.90;99.90;;;;;;4996565;28;20000;-85
2022/09/18 04:32:29;;;;;;;;;;;9.90;99.90;;;;;;4996359;28;19913;-85
2022/09/18 04:34:54;;;;;;;;;;;9.90;99.90;;;;;;4994750;28;19916;-85
2022/09/18 04:37:20;;;;;;;;;;;9.90;99.90;;;;;;4978717;28;19985;-85
2022/09/18 04:39:46;;;;;;;;;;;10.00;99.90;;;;;;4996037;28;20283;-85
2022/09/18 04:42:12;;;;;;;;;;;10.00;99.90;;;;;;4996013;28;19993;-85
2022/09/18 04:44:37;;;;;;;;;;;10.00;99.90;;;;;;4978360;28;20310;-85
2022/09/18 04:47:04;;;;;;;;;;;10.00;99.90;;;;;;4995734;28;19913;-85
2022/09/18 04:49:30;;;;;;;;;;;10.00;99.90;;;;;;4978719;28;19992;-86
2022/09/18 04:51:56;;;;;;;;;;;10.00;99.90;;;;;;4978653;28;20024;-88
2022/09/18 04:54:21;;;;;;;;;;;10.00;99.90;;;;;;4995348;28;19905;-86
2022/09/18 04:56:47;;;;;;;;;;;10.00;99.90;;;;;;4978368;28;19913;-86
2022/09/18 04:59:12;;;;;;;;;;;10.00;99.90;;;;;;4978469;28;20378;-86
2022/09/18 05:01:38;;;;;;;;;;;10.00;99.90;;;;;;4995554;28;19910;-85
2022/09/18 05:04:03;;;;;;;;;;;10.00;99.90;;;;;;4993883;28;19929;-85
2022/09/18 05:06:29;;;;;;;;;;;10.00;99.90;;;;;;4994075;28;19905;-86
2022/09/18 05:08:54;;;;;;;;;;;10.00;99.90;;;;;;4977166;28;19905;-86
2022/09/18 05:11:20;;;;;;;;;;;10.00;99.90;;;;;;4993805;28;20303;-85
2022/09/18 05:13:49;;;;;;;;;;;10.00;99.90;;;;;;4977193;28;20363;-86
2022/09/18 05:16:14;;;;;;;;;;;10.00;99.90;;;;;;4977345;28;19920;-86
2022/09/18 05:18:40;;;;;;;;;;;10.00;99.90;;;;;;4994879;28;20359;-86
2022/09/18 05:21:05;;;;;;;;;;;10.00;99.90;;;;;;4977187;28;19905;-85
2022/09/18 05:23:33;;;;;;;;;;;10.00;99.90;;;;;;4977212;28;19929;-85
2022/09/18 05:25:58;;;;;;;;;;;10.00;99.90;;;;;;4994646;28;20375;-86
2022/09/18 05:28:25;;;;;;;;;;;10.00;99.90;;;;;;4976966;28;19936;-86
2022/09/18 05:30:51;;;;;;;;;;;10.00;99.90;;;;;;4977017;28;19909;-85
2022/09/18 05:33:16;;;;;;;;;;;10.00;99.90;;;;;;4995047;28;19921;-85
2022/09/18 05:35:42;;;;;;;;;;;10.10;99.90;;;;;;4995381;28;20452;-85
2022/09/18 05:38:08;;;;;;;;;;;10.10;99.90;;;;;;4993836;28;20000;-86
2022/09/18 05:40:35;;;;;;;;;;;10.10;99.90;;;;;;4977526;28;19917;-88
2022/09/18 05:43:04;;;;;;;;;;;10.10;99.90;;;;;;4974877;28;19913;-86
2022/09/18 05:45:30;;;;;;;;;;;10.10;99.90;;;;;;4977263;28;20419;-87
2022/09/18 05:47:59;;;;;;;;;;;10.10;99.90;;;;;;4977311;28;20008;-86
2022/09/18 05:50:26;;;;;;;;;;;10.10;99.90;;;;;;4988033;28;19921;-86
2022/09/18 05:52:57;;;;;;;;;;;10.10;99.90;;;;;;4977995;28;19910;-85
2022/09/18 05:55:23;;;;;;;;;;;10.10;99.90;;;;;;4977164;28;19906;-85
2022/09/18 05:57:53;;;;;;;;;;;10.10;99.90;;;;;;4976692;28;19928;-85
2022/09/18 06:00:19;;;;;;;;;;;10.10;99.90;;;;;;4994744;28;19905;-85
2022/09/18 06:02:51;;;;;;;;;;;10.10;99.90;;;;;;4977309;28;20302;-86
2022/09/18 06:05:16;;;;;;;;;;;10.10;99.90;;;;;;4976813;28;19918;-85
2022/09/18 06:07:42;;;;;;;;;;;10.10;99.90;;;;;;4977593;28;19933;-85
2022/09/18 06:10:07;;;;;;;;;;;10.10;99.90;;;;;;4976814;28;20327;-85
2022/09/18 06:12:33;;;;;;;;;;;10.10;99.90;;;;;;4976544;28;19920;-85
2022/09/18 06:14:59;;;;;;;;;;;10.10;99.90;;;;;;4977286;28;20355;-85
2022/09/18 06:17:24;;;;;;;;;;;10.10;99.90;;;;;;4982681;28;19922;-84
2022/09/18 06:19:52;;;;;;;;;;;10.20;99.90;;;;;;4998293;28;20371;-85
2022/09/18 06:22:19;;;;;;;;;;;10.20;99.90;;;;;;4982457;28;19951;-84
2022/09/18 06:24:45;;;;;;;;;;;10.20;99.90;;;;;;4983162;28;19918;-86
2022/09/18 06:27:10;;;;;;;;;;;10.20;99.90;;;;;;4976967;28;19910;-85
2022/09/18 06:29:36;;;;;;;;;;;10.30;99.90;;;;;;4977165;28;19921;-85
2022/09/18 06:32:01;;;;;;;;;;;10.30;99.90;;;;;;4988905;28;19918;-86
2022/09/18 06:34:27;;;;;;;;;;;10.30;99.90;;;;;;4988551;28;19910;-84
2022/09/18 06:36:52;;;;;;;;;;;10.40;99.90;;;;;;4972210;28;20298;-84
2022/09/18 06:39:18;;;;;;;;;;;10.40;99.90;;;;;;4988317;28;19986;-85
2022/09/18 06:41:43;;;;;;;;;;;10.40;99.90;;;;;;4972408;28;19921;-85
2022/09/18 06:44:09;;;;;;;;;;;10.50;99.90;;;;;;4973661;28;19906;-85
2022/09/18 06:46:36;;;;;;;;;;;10.50;99.90;;;;;;4988443;28;19906;-84
2022/09/18 06:49:02;;;;;;;;;;;10.50;99.90;;;;;;4972216;28;20378;-86
2022/09/18 06:51:28;;;;;;;;;;;10.60;99.90;;;;;;4971854;28;19918;-87
2022/09/18 06:53:53;;;;;;;;;;;10.60;99.90;;;;;;4971675;28;20001;-86
2022/09/18 06:56:19;;;;;;;;;;;10.60;99.90;;;;;;4988146;28;19997;-86
2022/09/18 06:58:45;;;;;;;;;;;10.70;99.90;;;;;;4973246;28;19997;-85
2022/09/18 07:01:10;;;;;;;;;;;10.70;99.90;;;;;;4988020;28;19933;-86
2022/09/18 07:03:36;;;;;;;;;;;10.70;99.90;;;;;;4971601;28;19945;-88
2022/09/18 07:06:01;;;;;;;;;;;10.80;99.90;;;;;;4975246;28;19985;-86
2022/09/18 07:08:27;;;;;;;;;;;10.90;99.90;;;;;;4987686;28;20279;-86
2022/09/18 07:10:53;;;;;;;;;;;10.90;99.90;;;;;;4987423;28;20295;-87
2022/09/18 07:13:18;;;;;;;;;;;11.00;99.90;;;;;;4987729;28;19957;-85
2022/09/18 07:15:47;;;;;;;;;;;11.00;99.90;;;;;;4971127;28;19910;-88
2022/09/18 07:18:13;;;;;;;;;;;11.10;99.90;;;;;;4987694;28;19910;-86
2022/09/18 07:20:38;;;;;;;;;;;11.20;99.90;;;;;;4969989;28;19906;-87
2022/09/18 07:23:04;;;;;;;;;;;11.20;99.90;;;;;;4971809;28;19917;-88
2022/09/18 07:25:32;;;;;;;;;;;11.20;99.90;;;;;;4988178;28;19933;-87
2022/09/18 07:28:02;;;;;;;;;;;11.30;99.90;;;;;;4972183;28;19906;-87
2022/09/18 07:30:28;;;;;;;;;;;11.40;99.90;;;;;;4971283;28;19965;-88
2022/09/18 07:32:53;;;;;;;;;;;11.40;99.90;;;;;;4973241;28;19918;-86
2022/09/18 07:35:19;;;;;;;;;;;11.50;99.90;;;;;;4987629;28;19906;-88
2022/09/18 07:37:44;;;;;;;;;;;11.50;99.90;;;;;;4972321;28;19910;-85
2022/09/18 07:40:11;;;;;;;;;;;11.60;99.90;;;;;;4987221;28;19910;-86
2022/09/18 07:42:37;;;;;;;;;;;11.70;99.90;;;;;;4987582;28;20363;-85
2022/09/18 07:45:04;;;;;;;;;;;11.80;99.90;;;;;;4972957;28;19960;-85
2022/09/18 07:47:30;;;;;;;;;;;11.90;99.90;;;;;;4972286;28;19957;-88
2022/09/18 07:49:55;;;;;;;;;;;12.00;99.90;;;;;;4973294;28;20331;-84
2022/09/18 07:52:21;;;;;;;;;;;12.00;99.90;;;;;;4973170;28;19926;-85
2022/09/18 07:54:47;;;;;;;;;;;12.00;99.90;;;;;;4973248;28;20001;-85
2022/09/18 07:57:12;;;;;;;;;;;12.10;99.90;;;;;;4973596;28;19964;-85
2022/09/18 07:59:38;;;;;;;;;;;12.10;99.90;;;;;;4988806;28;19906;-85
2022/09/18 08:02:04;;;;;;;;;;;12.10;99.90;;;;;;4974006;28;19917;-85
2022/09/18 08:04:30;;;;;;;;;;;12.20;99.90;;;;;;4972434;28;20685;-86
2022/09/18 08:07:02;;;;;;;;;;;12.20;99.90;;;;;;4974208;28;19917;-85
2022/09/18 08:09:27;;;;;;;;;;;12.30;99.90;;;;;;4971571;28;19910;-85
2022/09/18 08:11:53;;;;;;;;;;;12.30;99.90;;;;;;4988466;28;20311;-86
2022/09/18 08:14:18;;;;;;;;;;;12.30;99.90;;;;;;4973196;28;20008;-84
2022/09/18 08:16:44;;;;;;;;;;;12.40;99.90;;;;;;4972867;28;19916;-83
2022/09/18 08:19:09;;;;;;;;;;;12.50;99.90;;;;;;4972964;28;19906;-83
2022/09/18 08:21:35;;;;;;;;;;;12.50;99.90;;;;;;4987627;28;19945;-84
2022/09/18 08:24:01;;;;;;;;;;;12.60;99.90;;;;;;4987748;28;19980;-85
2022/09/18 08:26:30;;;;;;;;;;;12.70;99.90;;;;;;4990710;28;20375;-86
2022/09/18 08:28:55;;;;;;;;;;;12.80;99.90;;;;;;4977001;28;19916;-85
2022/09/18 08:31:21;;;;;;;;;;;12.90;99.90;;;;;;4996139;28;21380;-85
2022/09/18 08:33:46;;;;;;;;;;;13.00;99.90;;;;;;4995948;28;19909;-85
2022/09/18 08:36:12;;;;;;;;;;;13.10;99.90;;;;;;4978426;28;19972;-86
2022/09/18 08:38:37;;;;;;;;;;;13.20;99.90;;;;;;4978549;28;20620;-86
2022/09/18 08:41:18;;;;;;;;;;;13.20;99.90;;;;;;4978259;28;19913;-86
2022/09/18 08:43:59;;;;;;;;;;;13.40;99.90;;;;;;4979189;28;19910;-86
2022/09/18 08:46:34;;;;;;;;;;;13.50;99.90;;;;;;4993759;28;19957;-85
2022/09/18 08:49:06;;;;;;;;;;;13.50;99.90;;;;;;4979185;28;20341;-86
2022/09/18 08:51:44;;;;;;;;;;;13.60;99.90;;;;;;4996739;28;19913;-87
2022/09/18 08:54:16;;;;;;;;;;;13.60;99.90;;;;;;4994821;28;20370;-87
2022/09/18 08:56:42;;;;;;;;;;;13.70;99.90;;;;;;4995051;28;20382;-86
2022/09/18 08:59:15;;;;;;;;;;;13.70;99.90;;;;;;4994560;28;19909;-84
2022/09/18 09:01:50;;;;;;;;;;;13.90;99.90;;;;;;4992598;28;19910;-86
2022/09/18 09:04:27;;;;;;;;;;;14.10;99.90;;;;;;4995864;28;19909;-86
2022/09/18 09:07:02;;;;;;;;;;;14.10;99.90;;;;;;4995461;28;19905;-84
2022/09/18 09:09:34;;;;;;;;;;;14.20;99.90;;;;;;4978815;28;19906;-86
2022/09/18 09:12:09;;;;;;;;;;;14.20;99.90;;;;;;4992827;28;20385;-85
2022/09/18 09:14:39;;;;;;;;;;;14.20;99.90;;;;;;4993295;28;19968;-86
2022/09/18 09:17:23;;;;;;;;;;;14.30;99.90;;;;;;4995407;28;20005;-86
2022/09/18 09:20:19;;;;;;;;;;;14.50;99.90;;;;;;4993137;28;19909;-88
2022/09/18 09:22:56;;;;;;;;;;;14.60;99.90;;;;;;4966342;28;19905;-85
2022/09/18 09:25:24;;;;;;;;;;;14.60;99.90;;;;;;4999162;28;19961;-86
2022/09/18 09:28:11;;;;;;;;;;;14.70;99.90;;;;;;4979866;28;19909;-85
2022/09/18 09:30:38;;;;;;;;;;;14.80;99.90;;;;;;4997560;28;19905;-85
2022/09/18 09:33:22;;;;;;;;;;;14.90;99.90;;;;;;4978709;28;19914;-87
2022/09/18 09:35:53;;;;;;;;;;;14.90;99.90;;;;;;4978518;28;20000;-86
2022/09/18 09:38:37;;;;;;;;;;;15.00;99.90;;;;;;4996023;28;19909;-87
2022/09/18 09:41:10;;;;;;;;;;;15.00;99.90;;;;;;4994682;28;19989;-86
2022/09/18 09:43:45;;;;;;;;;;;15.10;99.90;;;;;;4995471;28;19909;-85
2022/09/18 09:46:30;;;;;;;;;;;15.20;99.90;;;;;;4977539;28;19917;-88
2022/09/18 09:49:00;;;;;;;;;;;15.20;99.90;;;;;;4989618;28;19917;-87
2022/09/18 09:51:44;;;;;;;;;;;15.30;99.90;;;;;;4995101;28;19913;-86
2022/09/18 09:54:10;;;;;;;;;;;15.40;99.90;;;;;;4993708;28;19913;-86
2022/09/18 09:56:36;;;;;;;;;;;15.50;99.90;;;;;;4978246;28;19910;-86
2022/09/18 09:59:21;;;;;;;;;;;15.70;99.90;;;;;;4977880;28;19963;-87
2022/09/18 10:02:06;;;;;;;;;;;15.90;99.90;;;;;;4983588;28;20391;-87
2022/09/18 10:04:51;;;;;;;;;;;16.10;99.90;;;;;;4988422;28;19924;-87
2022/09/18 10:07:18;;;;;;;;;;;16.40;99.90;;;;;;4976878;28;20004;-86
2022/09/18 10:09:51;;;;;;;;;;;16.60;99.90;;;;;;4976740;28;19909;-85
2022/09/18 10:12:16;;;;;;;;;;;16.70;99.90;;;;;;4988145;28;20075;-86
2022/09/18 10:14:43;;;;;;;;;;;16.90;99.90;;;;;;4993523;28;19972;-87
2022/09/18 10:17:14;;;;;;;;;;;16.90;99.90;;;;;;4994552;28;19949;-86
2022/09/18 10:19:44;;;;;;;;;;;16.90;99.90;;;;;;4971978;28;19960;-88
2022/09/18 10:22:11;;;;;;;;;;;16.90;99.40;;;;;;4977509;28;19913;-86
2022/09/18 10:24:43;;;;;;;;;;;16.90;99.00;;;;;;4993285;28;19922;-86
2022/09/18 10:27:10;;;;;;;;;;;16.90;98.50;;;;;;4990454;28;19936;-86
2022/09/18 10:29:36;;;;;;;;;;;16.80;98.40;;;;;;4992229;28;19956;-87
2022/09/18 10:32:02;;;;;;;;;;;16.70;98.10;;;;;;4975904;28;19972;-87
2022/09/18 10:34:51;;;;;;;;;;;16.60;98.30;;;;;;4993623;28;19917;-86
2022/09/18 10:37:27;;;;;;;;;;;16.50;98.40;;;;;;4967252;28;19906;-87
2022/09/18 10:39:53;;;;;;;;;;;16.40;98.50;;;;;;4992605;28;19910;-86
2022/09/18 10:42:24;;;;;;;;;;;16.30;98.80;;;;;;4975826;28;19905;-87
2022/09/18 10:44:52;;;;;;;;;;;16.20;99.10;;;;;;4976613;28;19917;-87
2022/09/18 10:47:33;;;;;;;;;;;16.20;99.40;;;;;;4993953;28;19910;-85
2022/09/18 10:50:05;;;;;;;;;;;16.20;99.60;;;;;;4992520;28;19933;-86
2022/09/18 10:52:37;;;;;;;;;;;16.20;99.50;;;;;;4975706;28;19924;-88
2022/09/18 10:55:06;;;;;;;;;;;16.20;99.50;;;;;;4975747;28;19914;-87
2022/09/18 10:57:42;;;;;;;;;;;16.20;99.60;;;;;;4993639;28;19906;-88
2022/09/18 11:00:11;;;;;;;;;;;16.40;99.60;;;;;;4976022;28;19971;-87
2022/09/18 11:02:40;;;;;;;;;;;16.40;99.60;;;;;;4994382;28;19963;-86
2022/09/18 11:05:27;;;;;;;;;;;16.40;99.00;;;;;;4993588;28;19952;-88
2022/09/18 11:08:14;;;;;;;;;;;16.40;99.10;;;;;;4993894;28;19959;-87
2022/09/18 11:10:45;;;;;;;;;;;16.30;99.00;;;;;;4976582;28;20344;-86
2022/09/18 11:13:17;;;;;;;;;;;16.30;99.20;;;;;;4977472;28;19963;-85
2022/09/18 11:15:48;;;;;;;;;;;16.40;99.30;;;;;;4994520;28;20374;-87
2022/09/18 11:18:14;;;;;;;;;;;16.50;99.20;;;;;;4994171;28;19977;-86
2022/09/18 11:20:41;;;;;;;;;;;16.60;99.10;;;;;;4995018;28;19906;-87
2022/09/18 11:23:22;;;;;;;;;;;16.60;98.50;;;;;;4977856;28;19912;-87
2022/09/18 11:25:48;;;;;;;;;;;16.50;98.60;;;;;;4995902;28;19922;-86
2022/09/18 11:28:26;;;;;;;;;;;16.60;98.80;;;;;;5009494;28;19923;-86
2022/09/18 11:31:00;;;;;;;;;;;16.70;98.80;;;;;;4997436;28;19928;-88
2022/09/18 11:33:32;;;;;;;;;;;16.90;98.70;;;;;;5013186;28;20461;-88
2022/09/18 11:36:13;;;;;;;;;;;17.00;98.30;;;;;;4977739;28;19905;-89
2022/09/18 11:38:39;;;;;;;;;;;17.10;97.60;;;;;;4994670;28;19916;-88
2022/09/18 11:41:05;;;;;;;;;;;17.10;97.10;;;;;;4975177;28;19906;-89
2022/09/18 11:43:35;;;;;;;;;;;17.20;96.70;;;;;;4993296;28;20312;-87
2022/09/18 11:46:07;;;;;;;;;;;17.20;96.50;;;;;;4979640;28;19964;-88
2022/09/18 11:48:55;;;;;;;;;;;17.40;96.10;;;;;;4979577;28;19906;-87
2022/09/18 11:51:25;;;;;;;;;;;17.60;95.50;;;;;;4992600;28;20429;-88
2022/09/18 11:53:54;;;;;;;;;;;17.60;95.30;;;;;;4976583;28;19910;-87
2022/09/18 11:56:30;;;;;;;;;;;17.60;94.50;;;;;;4976729;28;19945;-86
2022/09/18 11:59:02;;;;;;;;;;;17.50;94.20;;;;;;4978731;28;19920;-87
2022/09/18 12:01:40;;;;;;;;;;;17.30;94.30;;;;;;4976790;28;19916;-87
2022/09/18 12:04:06;;;;;;;;;;;17.20;94.20;;;;;;4998372;28;19973;-87
2022/09/18 12:06:32;;;;;;;;;;;17.20;94.40;;;;;;4997591;28;19910;-87
2022/09/18 12:09:06;;;;;;;;;;;17.20;94.60;;;;;;4979401;28;20537;-88
2022/09/18 12:11:36;;;;;;;;;;;17.30;94.70;;;;;;4980302;28;19914;-86
2022/09/18 12:14:16;;;;;;;;;;;17.40;94.80;;;;;;4979306;28;19910;-87
2022/09/18 12:17:08;;;;;;;;;;;17.50;94.70;;;;;;4997344;28;19933;-86
2022/09/18 12:19:49;;;;;;;;;;;17.50;94.50;;;;;;4953501;28;20405;-87
2022/09/18 12:22:20;;;;;;;;;;;17.40;94.10;;;;;;4992890;28;20000;-85
2022/09/18 12:24:50;;;;;;;;;;;17.40;93.90;;;;;;4997179;28;19963;-87
2022/09/18 12:27:35;;;;;;;;;;;17.40;93.80;;;;;;5003200;28;19914;-85
2022/09/18 12:30:03;;;;;;;;;;;17.50;93.50;;;;;;5001556;28;19960;-86
2022/09/18 12:32:47;;;;;;;;;;;17.60;93.60;;;;;;4983882;28;19967;-86
2022/09/18 12:35:16;;;;;;;;;;;17.50;93.50;;;;;;5000723;28;19964;-87
2022/09/18 12:37:53;;;;;;;;;;;17.50;93.60;;;;;;4997093;28;20367;-86
2022/09/18 12:40:38;;;;;;;;;;;17.60;93.60;;;;;;4999266;28;19925;-86
2022/09/18 12:43:03;;;;;;;;;;;17.70;93.70;;;;;;4998451;28;19910;-86
2022/09/18 12:45:29;;;;;;;;;;;17.60;93.30;;;;;;4997458;28;19920;-87
2022/09/18 12:47:57;;;;;;;;;;;17.50;93.10;;;;;;4979511;28;19914;-86
2022/09/18 12:50:44;;;;;;;;;;;17.40;93.10;;;;;;4997696;28;20377;-88
2022/09/18 12:53:19;;;;;;;;;;;17.30;93.20;;;;;;4982135;28;19964;-88
2022/09/18 12:55:56;;;;;;;;;;;17.30;93.30;;;;;;4996842;28;19910;-86
2022/09/18 12:58:25;;;;;;;;;;;17.20;93.20;;;;;;4967799;28;19910;-85
2022/09/18 13:00:51;;;;;;;;;;;17.20;93.20;;;;;;4989024;28;19906;-86
2022/09/18 13:03:21;;;;;;;;;;;17.10;93.30;;;;;;4979636;28;19910;-86
2022/09/18 13:05:53;;;;;;;;;;;17.10;92.70;;;;;;4997167;28;20375;-87
2022/09/18 13:08:31;;;;;;;;;;;17.00;92.40;;;;;;4974577;28;20378;-88
2022/09/18 13:11:09;;;;;;;;;;;16.90;92.10;;;;;;4977547;28;19910;-87
2022/09/18 13:13:48;;;;;;;;;;;16.90;92.10;;;;;;4991674;28;19914;-86
2022/09/18 13:16:30;;;;;;;;;;;16.90;91.70;;;;;;4996700;28;19910;-87
2022/09/18 13:19:12;;;;;;;;;;;16.90;91.60;;;;;;4976640;28;19964;-87
2022/09/18 13:21:43;;;;;;;;;;;17.00;91.60;;;;;;4981897;28;19905;-87
2022/09/18 13:24:16;;;;;;;;;;;17.10;91.30;;;;;;4979377;28;19905;-87
2022/09/18 13:26:44;;;;;;;;;;;17.10;90.90;;;;;;4978990;28;19924;-90
2022/09/18 13:29:29;;;;;;;;;;;17.10;90.60;;;;;;4988717;28;19917;-87
2022/09/18 13:31:55;;;;;;;;;;;17.20;90.60;;;;;;4996812;28;19921;-86
2022/09/18 13:34:21;;;;;;;;;;;17.10;90.30;;;;;;4979082;28;19968;-86
2022/09/18 13:36:47;;;;;;;;;;;17.20;90.20;;;;;;4978735;28;19909;-86
2022/09/18 13:39:17;;;;;;;;;;;17.50;90.20;;;;;;4979078;28;19905;-87
2022/09/18 13:41:53;;;;;;;;;;;17.70;89.50;;;;;;4995102;28;19927;-88
2022/09/18 13:44:25;;;;;;;;;;;18.00;88.80;;;;;;4993861;28;19985;-87
2022/09/18 13:46:54;;;;;;;;;;;18.20;88.00;;;;;;4986592;28;19910;-86
2022/09/18 13:49:20;;;;;;;;;;;18.50;87.00;;;;;;4995820;28;19914;-87
2022/09/18 13:51:45;;;;;;;;;;;18.60;85.90;;;;;;4982268;28;20023;-88
2022/09/18 13:54:11;;;;;;;;;;;18.60;85.40;;;;;;4977882;28;19906;-86
2022/09/18 13:57:16;;;;;;;;;;;18.60;84.00;;;;;;4978887;28;19913;-85
2022/09/18 13:59:49;;;;;;;;;;;18.80;82.80;;;;;;4907503;29;19911;-87
2022/09/18 14:02:30;;;;;;;;;;;19.10;81.20;;;;;;4914781;29;19925;-88
2022/09/18 14:04:56;;;;;;;;;;;19.50;80.00;;;;;;4912989;29;19911;-88
2022/09/18 14:07:22;;;;;;;;;;;19.90;78.20;;;;;;4895460;29;19974;-89
2022/09/18 14:09:55;;;;;;;;;;;20.20;77.30;;;;;;4903758;29;19908;-88
2022/09/18 14:12:22;;;;;;;;;;;20.40;75.50;;;;;;4904858;29;19967;-89
2022/09/18 14:15:00;;;;;;;;;;;20.40;74.10;;;;;;4909514;29;19972;-87
2022/09/18 14:17:27;;;;;;;;;;;20.30;73.80;;;;;;4890866;29;19911;-85
2022/09/18 14:20:08;;;;;;;;;;;20.20;73.50;;;;;;4906675;29;19911;-86
2022/09/18 14:22:36;;;;;;;;;;;19.80;73.30;;;;;;4908669;29;20325;-86
2022/09/18 14:25:05;;;;;;;;;;;19.50;73.80;;;;;;4899134;29;19977;-86
2022/09/18 14:27:37;;;;;;;;;;;19.20;74.50;;;;;;4914724;29;19962;-86
2022/09/18 14:30:14;;;;;;;;;;;18.90;75.30;;;;;;4939923;28;19909;-85
2022/09/18 14:32:42;;;;;;;;;;;18.70;76.10;;;;;;4990065;28;19913;-88
2022/09/18 14:35:18;;;;;;;;;;;18.60;76.80;;;;;;4975218;28;19941;-85